Huvudsida
METAR-TAF:

METAR-TAF

Flygplatser :

Bodø flygplats

Bodö, Norge

latitud: 67-16N, longitud: 014-22E, höjd: 1 m

Aktuellt väderrapport

Denna rapport gjordes för 1 timme och 12 minuter sedan, klockan 02:50 UTC
Stilla vind
Temperatur -2°C
Fuktighet 86%
Tryck 991 hPa
Sikt 10 km eller mer
Få moln på en höjd av 2000 ft
Spridda moln på en höjd av 3500 ft

METAR: ENBO 190250Z 00000KT 9999 FEW020 SCT035 M02/M04 Q0991

Tid: 05:02 (04:02 UTC)

Väderprognos

Prognos gäller från 19 kl. 00 UTC till 19 kl. 24 UTC
Vind 12 kt från nord
Sikt 10 km eller mer
Få moln på en höjd av 4000 ft
Blir
från 19 kl. 00 UTC till 19 kl. 02 UTC
Vind 9 kt från ost

TAF: ENBO 1900/1924 36012KT 9999 FEW040 BECMG 1900/1902 10009KT

Aktuella väderrapporter och prognoser från 4000 flygplatser (METAR- och TAF-rapporter).

De tillgängliga stationerna syns som gula och röda prickar på kartan.

För musen över prickarna för att se namnen på stationerna.

Klicka sedan för att få väderrapporter och prognoser.

För att ändra kartan: Klicka på de gröna knapparna med ett svart kors på för att zooma in; den gröna knappen med ett streck på för att zooma ut; eller på de gröna pilarna för angränsande kartor.


METAR-TAF: